createdAt,value
2018-10-11T00:03:27.953Z,61.44
2018-10-11T00:08:31.278Z,61.75
2018-10-11T00:13:34.573Z,62.12
2018-10-11T00:18:37.886Z,63.39
2018-10-11T00:23:41.225Z,63.66
2018-10-11T00:28:44.553Z,63.68
2018-10-11T00:33:47.957Z,63.63
2018-10-11T00:38:51.264Z,63.82
2018-10-11T00:43:54.611Z,62.85
2018-10-11T00:48:57.901Z,62.58
2018-10-11T00:54:01.245Z,63.09
2018-10-11T00:59:04.544Z,62.77
2018-10-11T01:04:07.952Z,63.50
2018-10-11T01:09:12.353Z,63.47
2018-10-11T01:14:15.600Z,64.09
2018-10-11T01:19:18.921Z,64.74
2018-10-11T01:24:22.237Z,64.70
2018-10-11T01:29:25.522Z,64.91
2018-10-11T01:34:28.873Z,64.46
2018-10-11T01:39:32.308Z,63.74
2018-10-11T01:44:35.632Z,63.94
2018-10-11T01:49:38.955Z,64.15
2018-10-11T01:54:42.271Z,64.60
2018-10-11T01:59:45.628Z,63.98
2018-10-11T02:04:48.988Z,64.41
2018-10-11T02:09:52.290Z,64.33
2018-10-11T02:14:55.601Z,63.94
2018-10-11T02:19:58.924Z,64.14
2018-10-11T02:25:02.282Z,64.76
2018-10-11T02:30:06.054Z,65.43
2018-10-11T02:35:09.532Z,65.63
2018-10-11T02:40:12.841Z,66.34
2018-10-11T02:45:16.176Z,66.35
2018-10-11T02:50:19.456Z,66.16
2018-10-11T02:55:26.940Z,66.06
2018-10-11T03:00:30.494Z,65.55
2018-10-11T03:05:37.055Z,65.48
2018-10-11T03:10:40.765Z,65.81
2018-10-11T03:15:44.584Z,64.80
2018-10-11T03:20:47.881Z,66.17
2018-10-11T03:25:51.192Z,66.94
2018-10-11T03:30:54.525Z,66.97
2018-10-11T03:35:57.813Z,67.16
2018-10-11T03:41:01.116Z,67.28
2018-10-11T03:46:04.458Z,66.84
2018-10-11T03:51:07.744Z,66.93
2018-10-11T03:56:11.045Z,66.39
2018-10-11T04:01:14.341Z,66.18
2018-10-11T04:06:17.798Z,65.82
2018-10-11T04:11:21.130Z,65.80
2018-10-11T04:16:24.432Z,65.92
2018-10-11T04:21:27.743Z,65.39
2018-10-11T04:26:31.041Z,64.60
2018-10-11T04:31:34.374Z,64.39
2018-10-11T04:36:37.697Z,64.65
2018-10-11T04:41:41.377Z,64.34
2018-10-11T04:46:44.659Z,63.63
2018-10-11T04:51:47.961Z,63.57
2018-10-11T04:56:51.248Z,63.60
2018-10-11T05:01:55.757Z,63.29
2018-10-11T05:06:59.069Z,63.15
2018-10-11T05:12:02.376Z,62.90
2018-10-11T05:17:05.690Z,63.25
2018-10-11T05:22:09.022Z,62.69
2018-10-11T05:27:12.329Z,62.79
2018-10-11T05:32:15.734Z,62.58
2018-10-11T05:37:19.056Z,62.65
2018-10-11T05:42:22.393Z,62.39
2018-10-11T05:47:25.679Z,62.90
2018-10-11T05:52:28.993Z,62.44
2018-10-11T05:57:32.303Z,62.47
2018-10-11T06:02:36.028Z,62.10
2018-10-11T06:07:39.329Z,61.77
2018-10-11T06:12:42.730Z,62.00
2018-10-11T06:17:46.451Z,61.81
2018-10-11T06:22:49.784Z,61.73
2018-10-11T06:27:53.205Z,61.42
2018-10-11T06:32:56.794Z,61.14
2018-10-11T06:38:00.580Z,61.15
2018-10-11T06:43:03.947Z,60.28
2018-10-11T06:48:08.812Z,60.21
2018-10-11T06:53:12.349Z,60.48
2018-10-11T06:58:15.643Z,60.19
2018-10-11T07:03:18.957Z,59.60
2018-10-11T07:08:22.644Z,58.86
2018-10-11T07:13:26.049Z,58.46
2018-10-11T07:18:29.376Z,57.61
2018-10-11T07:23:32.730Z,57.31
2018-10-11T07:28:36.164Z,56.87
2018-10-11T07:33:39.472Z,56.69
2018-10-11T07:38:42.784Z,57.24
2018-10-11T07:43:46.124Z,55.69
2018-10-11T07:48:49.434Z,54.99
2018-10-11T07:53:52.776Z,55.01
2018-10-11T07:58:56.105Z,54.72
2018-10-11T08:03:59.539Z,53.96
2018-10-11T08:09:02.928Z,53.81
2018-10-11T08:14:06.436Z,53.56
2018-10-11T08:19:10.002Z,53.00
2018-10-11T08:24:13.209Z,52.55
2018-10-11T08:29:16.476Z,50.97
2018-10-11T08:34:19.797Z,49.50
2018-10-11T08:39:23.140Z,49.15
2018-10-11T08:44:26.448Z,49.30
2018-10-11T08:49:29.759Z,48.78
2018-10-11T08:54:38.397Z,49.06
2018-10-11T08:59:41.776Z,48.51
2018-10-11T09:04:45.536Z,47.20
2018-10-11T09:09:53.562Z,46.90
2018-10-11T09:14:52.229Z,46.45
2018-10-11T09:19:55.551Z,45.83
2018-10-11T09:24:58.872Z,45.63
2018-10-11T09:30:02.250Z,46.52
2018-10-11T09:35:06.061Z,46.04
2018-10-11T09:40:09.728Z,45.56
2018-10-11T09:45:13.025Z,46.39
2018-10-11T09:50:16.372Z,47.54
2018-10-11T09:55:19.669Z,47.00
2018-10-11T10:00:28.336Z,45.58
2018-10-11T10:05:31.677Z,44.72
2018-10-11T10:10:34.992Z,44.85
2018-10-11T10:15:38.330Z,45.23
2018-10-11T10:20:41.636Z,44.26
2018-10-11T10:25:44.950Z,44.46
2018-10-11T10:30:51.340Z,44.20
2018-10-11T10:35:54.628Z,43.35
2018-10-11T10:40:57.929Z,43.25
2018-10-11T10:46:01.214Z,43.10
2018-10-11T10:51:04.809Z,42.26
2018-10-11T10:56:08.182Z,43.14
2018-10-11T11:01:11.545Z,41.53
2018-10-11T11:06:14.850Z,40.55
2018-10-11T11:11:18.166Z,39.06
2018-10-11T11:16:21.518Z,31.09
2018-10-11T11:21:24.798Z,23.28
2018-10-11T11:26:28.196Z,20.31
2018-10-11T11:31:31.877Z,20.05
2018-10-11T11:36:35.155Z,19.36
2018-10-11T11:41:38.573Z,17.51
2018-10-11T11:46:41.870Z,16.54
2018-10-11T11:51:45.144Z,14.88
2018-10-11T11:56:48.596Z,14.36
2018-10-11T12:01:51.863Z,13.23
2018-10-11T12:06:55.136Z,14.00
2018-10-11T12:11:58.461Z,14.14
2018-10-11T12:17:01.868Z,14.16
2018-10-11T12:22:05.181Z,13.04
2018-10-11T12:27:08.486Z,12.72
2018-10-11T12:32:11.821Z,12.36
2018-10-11T12:37:15.097Z,11.97
2018-10-11T12:42:18.447Z,13.13
2018-10-11T12:47:21.748Z,12.60
2018-10-11T12:52:25.702Z,12.33
2018-10-11T12:57:29.069Z,12.32
2018-10-11T13:02:32.349Z,11.90
2018-10-11T13:07:35.637Z,13.78
2018-10-11T13:12:38.956Z,12.81
2018-10-11T13:17:43.646Z,16.47
2018-10-11T13:22:45.697Z,19.18
2018-10-11T13:27:48.972Z,19.64
2018-10-11T13:32:52.514Z,19.57
2018-10-11T13:37:55.828Z,18.52
2018-10-11T13:42:59.178Z,20.26
2018-10-11T13:48:02.476Z,22.37
2018-10-11T13:53:06.142Z,23.11
2018-10-11T13:58:09.351Z,24.50
2018-10-11T14:03:12.684Z,24.83
2018-10-11T14:08:15.961Z,25.80
2018-10-11T14:13:20.688Z,27.15
2018-10-11T14:18:22.563Z,27.44
2018-10-11T14:23:25.828Z,27.44
2018-10-11T14:28:29.133Z,28.09
2018-10-11T14:33:32.701Z,27.70
2018-10-11T14:38:36.225Z,28.65
2018-10-11T14:43:39.644Z,29.07
2018-10-11T14:48:43.249Z,29.44
2018-10-11T14:53:50.457Z,29.60
2018-10-11T14:58:49.901Z,30.00
2018-10-11T15:03:53.224Z,30.08
2018-10-11T15:08:56.526Z,30.81
2018-10-11T15:13:59.850Z,30.80
2018-10-11T15:19:03.168Z,31.13
2018-10-11T15:24:07.318Z,31.02
2018-10-11T15:29:10.823Z,30.93
2018-10-11T15:34:14.152Z,31.58
2018-10-11T15:39:17.565Z,32.21
2018-10-11T15:44:20.896Z,32.47
2018-10-11T15:49:24.245Z,32.71
2018-10-11T15:54:27.562Z,33.05
2018-10-11T15:59:30.872Z,33.93
2018-10-11T16:04:34.196Z,34.25
2018-10-11T16:09:38.616Z,34.27
2018-10-11T16:14:41.946Z,35.18
2018-10-11T16:19:45.270Z,35.11
2018-10-11T16:24:48.780Z,36.03
2018-10-11T16:29:52.139Z,35.79
2018-10-11T16:34:55.526Z,35.83
2018-10-11T16:39:58.869Z,36.45
2018-10-11T16:45:02.426Z,36.68
2018-10-11T16:50:06.188Z,36.92
2018-10-11T16:55:09.462Z,36.82
2018-10-11T17:00:12.782Z,37.85
2018-10-11T17:05:16.069Z,38.24
2018-10-11T17:10:19.385Z,39.14
2018-10-11T17:15:22.704Z,39.73
2018-10-11T17:20:26.000Z,40.29
2018-10-11T17:25:29.388Z,40.58
2018-10-11T17:30:32.684Z,40.53
2018-10-11T17:35:36.009Z,41.75
2018-10-11T17:40:39.592Z,41.71
2018-10-11T17:45:42.888Z,42.51
2018-10-11T17:50:46.203Z,43.00
2018-10-11T17:55:49.489Z,42.98
2018-10-11T18:00:52.793Z,43.51
2018-10-11T18:05:56.176Z,43.54
2018-10-11T18:10:59.518Z,43.83
2018-10-11T18:16:02.943Z,44.39
2018-10-11T18:21:06.325Z,45.05
2018-10-11T18:26:10.929Z,45.39
2018-10-11T18:31:14.233Z,45.29
2018-10-11T18:36:17.572Z,45.52
2018-10-11T18:41:20.909Z,45.65
2018-10-11T18:46:24.246Z,46.06
2018-10-11T18:51:27.730Z,46.01
2018-10-11T18:56:31.072Z,46.69
2018-10-11T19:01:34.396Z,47.27
2018-10-11T19:06:37.839Z,47.01
2018-10-11T19:11:41.189Z,47.57
2018-10-11T19:16:44.531Z,48.04
2018-10-11T19:21:48.786Z,47.62
2018-10-11T19:26:52.249Z,48.08
2018-10-11T19:31:55.713Z,47.88
2018-10-11T19:36:59.011Z,48.27
2018-10-11T19:42:02.345Z,47.94
2018-10-11T19:47:05.964Z,48.58
2018-10-11T19:52:09.373Z,48.87
2018-10-11T19:57:12.850Z,49.32
2018-10-11T20:02:16.189Z,49.54
2018-10-11T20:07:19.485Z,49.94
2018-10-11T20:12:23.348Z,49.94
2018-10-11T20:17:26.852Z,49.50
2018-10-11T20:22:30.773Z,49.83
2018-10-11T20:27:34.103Z,49.85
2018-10-11T20:32:37.827Z,49.64
2018-10-11T20:37:41.140Z,49.57
2018-10-11T20:42:44.436Z,49.70
2018-10-11T20:47:47.738Z,49.71
2018-10-11T20:52:51.040Z,49.50
2018-10-11T20:57:54.352Z,50.28
2018-10-11T21:02:57.872Z,50.39
2018-10-11T21:08:01.269Z,50.53
2018-10-11T21:13:04.612Z,50.11
2018-10-11T21:18:07.953Z,49.97
2018-10-11T21:23:11.288Z,49.98
2018-10-11T21:28:14.683Z,49.80
2018-10-11T21:33:18.064Z,50.05
2018-10-11T21:38:22.547Z,50.16
2018-10-11T21:43:25.885Z,49.72
2018-10-11T21:48:29.168Z,50.39
2018-10-11T21:53:32.521Z,51.16
2018-10-11T21:58:35.836Z,50.96
2018-10-11T22:03:39.149Z,51.70
2018-10-11T22:08:42.477Z,53.24
2018-10-11T22:13:45.784Z,53.70
2018-10-11T22:18:49.062Z,54.60
2018-10-11T22:23:52.413Z,54.45
2018-10-11T22:28:55.728Z,54.58
2018-10-11T22:33:59.020Z,54.13
2018-10-11T22:39:02.312Z,54.37
2018-10-11T22:44:05.653Z,53.84
2018-10-11T22:49:09.481Z,54.03
2018-10-11T22:54:13.018Z,54.62
2018-10-11T22:59:16.323Z,54.25
2018-10-11T23:04:19.608Z,54.19
2018-10-11T23:09:22.921Z,54.40
2018-10-11T23:14:26.258Z,54.55
2018-10-11T23:19:29.624Z,54.92
2018-10-11T23:24:32.941Z,55.39
2018-10-11T23:29:36.288Z,55.64
2018-10-11T23:34:39.647Z,55.60
2018-10-11T23:39:42.988Z,55.23
2018-10-11T23:44:46.355Z,55.02
2018-10-11T23:49:49.655Z,55.09
2018-10-11T23:54:52.985Z,55.21
2018-10-11T23:59:56.301Z,55.18
